Observation data for Northwest San Angelo on 08/15/2019      Previous  Date       Current Mesonet Observations  Soil Data  Daily Summary Page  Observations in Plain Language
KASU 150500Z 09005KT 24/19 A3009 RMK A01 T02430186  RH  074%=      5-min Rain = 0
KASU 150505Z 10005KT 24/19 A3009 RMK A01 T02430186  RH  074%=      5-min Rain = 0
KASU 150510Z 10004KT 24/19 A3009 RMK A01 T02440186  RH  074%=      5-min Rain = 0
KASU 150515Z 11003KT 24/19 A3009 RMK A01 T02430187  RH  075%=      5-min Rain = 0
KASU 150520Z 12003KT 24/19 A3009 RMK A01 T02430190  RH  076%=      5-min Rain = 0
KASU 150525Z 12003KT 24/19 A3009 RMK A01 T02430189  RH  076%=      5-min Rain = 0
KASU 150530Z 11003KT 24/19 A3009 RMK A01 T02430185  RH  074%=      5-min Rain = 0
KASU 150535Z 11003KT 25/19 A3009 RMK A01 T02460186  RH  073%=      5-min Rain = 0
KASU 150540Z 14003KT 24/19 A301 RMK A01 T02440185  RH  074%=      5-min Rain = 0
KASU 150545Z 14003KT 24/18 A301 RMK A01 T02440183  RH  073%=      5-min Rain = 0
KASU 150550Z 16002KT 24/18 A301 RMK A01 T02440181  RH  072%=      5-min Rain = 0
KASU 150555Z 18002KT 25/18 A301 RMK A01 T02450182  RH  071%=      5-min Rain = 0
KASU 150600Z 18002KT 25/18 A301 RMK A01 T02450183  RH  072%=      5-min Rain = 0
KASU 150605Z 15003KT 25/18 A3009 RMK A01 T02450183  RH  072%=      5-min Rain = 0
KASU 150610Z 15003KT 24/19 A3009 RMK A01 T02430186  RH  074%=      5-min Rain = 0
KASU 150615Z 16003KT 24/18 A3009 RMK A01 T02420179  RH  072%=      5-min Rain = 0
KASU 150620Z 16003KT 25/18 A3009 RMK A01 T02450178  RH  070%=      5-min Rain = 0
KASU 150625Z 16002KT 25/18 A3009 RMK A01 T02450179  RH  070%=      5-min Rain = 0.01
KASU 150630Z 16002KT 24/18 A301 RMK A01 T02440177  RH  070%=      5-min Rain = 0
KASU 150635Z 16002KT 24/18 A301 RMK A01 T02440176  RH  069%=      5-min Rain = 0
KASU 150640Z 18002KT 24/17 A301 RMK A01 T02440173  RH  068%=      5-min Rain = 0
KASU 150645Z 17002KT 24/17 A301 RMK A01 T02440172  RH  067%=      5-min Rain = 0
KASU 150650Z 23001KT 24/17 A3009 RMK A01 T02440173  RH  068%=      5-min Rain = 0
KASU 150655Z 25001KT 24/18 A3009 RMK A01 T02410176  RH  071%=      5-min Rain = 0
KASU 150700Z 25000KT 24/18 A3009 RMK A01 T02390177  RH  072%=      5-min Rain = 0
KASU 150705Z 01001KT 24/18 A3009 RMK A01 T02380176  RH  072%=      5-min Rain = 0
KASU 150710Z 02000KT 24/18 A3009 RMK A01 T02380179  RH  073%=      5-min Rain = 0
KASU 150715Z 00000KT 24/18 A3009 RMK A01 T02360179  RH  074%=      5-min Rain = 0
KASU 150720Z 00000KT 23/18 A3009 RMK A01 T02330180  RH  076%=      5-min Rain = 0
KASU 150725Z 00000KT 23/18 A3009 RMK A01 T02300181  RH  078%=      5-min Rain = 0
KASU 150730Z 00000KT 23/18 A3009 RMK A01 T02290183  RH  079%=      5-min Rain = 0
KASU 150735Z 00000KT 23/18 A3009 RMK A01 T02280184  RH  080%=      5-min Rain = 0
KASU 150740Z 02003KT 23/18 A3009 RMK A01 T02280184  RH  080%=      5-min Rain = 0
KASU 150745Z 00002KT 23/18 A3009 RMK A01 T02290184  RH  080%=      5-min Rain = 0
KASU 150750Z 36001KT 23/18 A3009 RMK A01 T02290183  RH  079%=      5-min Rain = 0
KASU 150755Z 35002KT 23/18 A3009 RMK A01 T02280182  RH  080%=      5-min Rain = 0
KASU 150800Z 35001KT 23/18 A3008 RMK A01 T02260182  RH  080%=      5-min Rain = 0
KASU 150805Z 33000KT 23/18 A3008 RMK A01 T02260182  RH  081%=      5-min Rain = 0
KASU 150810Z 00000KT 23/18 A3008 RMK A01 T02250182  RH  081%=      5-min Rain = 0
KASU 150815Z 33001KT 23/18 A3007 RMK A01 T02260182  RH  081%=      5-min Rain = 0
KASU 150820Z 33003KT 22/18 A3007 RMK A01 T02240180  RH  080%=      5-min Rain = 0
KASU 150825Z 35003KT 22/18 A3007 RMK A01 T02240182  RH  082%=      5-min Rain = 0
KASU 150830Z 01002KT 23/19 A3007 RMK A01 T02250185  RH  082%=      5-min Rain = 0
KASU 150835Z 01001KT 22/18 A3007 RMK A01 T02240184  RH  082%=      5-min Rain = 0
KASU 150840Z 01001KT 22/18 A3007 RMK A01 T02230183  RH  082%=      5-min Rain = 0
KASU 150845Z 00000KT 22/18 A3007 RMK A01 T02230183  RH  083%=      5-min Rain = 0
KASU 150850Z 34001KT 22/18 A3007 RMK A01 T02200181  RH  083%=      5-min Rain = 0
KASU 150855Z 34003KT 22/18 A3007 RMK A01 T02190181  RH  083%=      5-min Rain = 0
KASU 150900Z 34003KT 22/18 A3007 RMK A01 T02200183  RH  084%=      5-min Rain = 0
KASU 150905Z 34003KT 22/18 A3007 RMK A01 T02190183  RH  084%=      5-min Rain = 0
KASU 150910Z 34004KT 22/18 A3006 RMK A01 T02180182  RH  084%=      5-min Rain = 0
KASU 150915Z 34005KT 22/18 A3006 RMK A01 T02170182  RH  085%=      5-min Rain = 0
KASU 150920Z 35004KT 22/18 A3006 RMK A01 T02180183  RH  085%=      5-min Rain = 0
KASU 150925Z 35003KT 22/18 A3006 RMK A01 T02180183  RH  085%=      5-min Rain = 0
KASU 150930Z 36003KT 22/19 A3006 RMK A01 T02190185  RH  085%=      5-min Rain = 0
KASU 150935Z 35003KT 22/18 A3006 RMK A01 T02190183  RH  084%=      5-min Rain = 0
KASU 150940Z 36004KT 22/18 A3007 RMK A01 T02180182  RH  084%=      5-min Rain = 0
KASU 150945Z 35004KT 22/18 A3006 RMK A01 T02190184  RH  085%=      5-min Rain = 0
KASU 150950Z 35003KT 22/18 A3006 RMK A01 T02170180  RH  084%=      5-min Rain = 0
KASU 150955Z 34003KT 22/18 A3006 RMK A01 T02150179  RH  084%=      5-min Rain = 0
KASU 151000Z 36002KT 21/18 A3006 RMK A01 T02140179  RH  084%=      5-min Rain = 0
KASU 151005Z 02000KT 22/18 A3006 RMK A01 T02150180  RH  085%=      5-min Rain = 0
KASU 151010Z 09000KT 21/18 A3006 RMK A01 T02140179  RH  085%=      5-min Rain = 0
KASU 151015Z 09001KT 22/18 A3007 RMK A01 T02150180  RH  085%=      5-min Rain = 0
KASU 151020Z 10000KT 21/18 A3006 RMK A01 T02140180  RH  085%=      5-min Rain = 0
KASU 151025Z 00000KT 21/18 A3006 RMK A01 T02130179  RH  085%=      5-min Rain = 0
KASU 151030Z 00000KT 21/18 A3006 RMK A01 T02090176  RH  085%=      5-min Rain = 0
KASU 151035Z 10000KT 21/18 A3006 RMK A01 T02090175  RH  085%=      5-min Rain = 0
KASU 151040Z 11000KT 21/18 A3006 RMK A01 T02090175  RH  085%=      5-min Rain = 0
KASU 151045Z 00000KT 21/18 A3006 RMK A01 T02090175  RH  085%=      5-min Rain = 0
KASU 151050Z 22000KT 21/17 A3006 RMK A01 T02050170  RH  085%=      5-min Rain = 0
KASU 151055Z 23001KT 20/17 A3006 RMK A01 T02040169  RH  084%=      5-min Rain = 0
KASU 151100Z 00000KT 21/17 A3006 RMK A01 T02060170  RH  084%=      5-min Rain = 0
KASU 151105Z 28000KT 21/18 A3006 RMK A01 T02100175  RH  085%=      5-min Rain = 0
KASU 151110Z 29001KT 21/17 A3006 RMK A01 T02070172  RH  084%=      5-min Rain = 0
KASU 151115Z 00000KT 21/17 A3006 RMK A01 T02070173  RH  085%=      5-min Rain = 0
KASU 151120Z 00000KT 21/18 A3006 RMK A01 T02090175  RH  085%=      5-min Rain = 0
KASU 151125Z 00000KT 21/18 A3006 RMK A01 T02080175  RH  086%=      5-min Rain = 0
KASU 151130Z 30001KT 21/17 A3006 RMK A01 T02060173  RH  086%=      5-min Rain = 0
KASU 151135Z 31003KT 20/17 A3006 RMK A01 T02030170  RH  086%=      5-min Rain = 0
KASU 151140Z 31001KT 20/17 A3006 RMK A01 T02030171  RH  086%=      5-min Rain = 0
KASU 151145Z 31001KT 21/17 A3006 RMK A01 T02060174  RH  086%=      5-min Rain = 0
KASU 151150Z 31001KT 21/18 A3006 RMK A01 T02070175  RH  086%=      5-min Rain = 0
KASU 151155Z 31000KT 21/18 A3007 RMK A01 T02070175  RH  087%=      5-min Rain = 0
KASU 151200Z 05001KT 21/18 A3007 RMK A01 T02060175  RH  087%=      5-min Rain = 0
KASU 151205Z 06002KT 21/18 A3007 RMK A01 T02050175  RH  087%=      5-min Rain = 0
KASU 151210Z 07001KT 21/18 A3007 RMK A01 T02060176  RH  087%=      5-min Rain = 0
KASU 151215Z 06001KT 21/18 A3007 RMK A01 T02070178  RH  088%=      5-min Rain = 0
KASU 151220Z 06002KT 21/18 A3007 RMK A01 T02080178  RH  088%=      5-min Rain = 0
KASU 151225Z 04002KT 21/18 A3008 RMK A01 T02090179  RH  088%=      5-min Rain = 0
KASU 151230Z 04001KT 21/18 A3008 RMK A01 T02110182  RH  088%=      5-min Rain = 0
KASU 151235Z 04001KT 22/19 A3008 RMK A01 T02160186  RH  088%=      5-min Rain = 0
KASU 151240Z 06001KT 22/19 A3008 RMK A01 T02190188  RH  087%=      5-min Rain = 0
KASU 151245Z 09001KT 22/19 A3008 RMK A01 T02210189  RH  087%=      5-min Rain = 0
KASU 151250Z 10000KT 22/19 A3009 RMK A01 T02230189  RH  085%=      5-min Rain = 0
KASU 151255Z 29000KT 22/19 A3009 RMK A01 T02220185  RH  084%=      5-min Rain = 0
KASU 151300Z 29001KT 22/18 A3009 RMK A01 T02220180  RH  081%=      5-min Rain = 0
KASU 151305Z 32002KT 23/18 A3009 RMK A01 T02270180  RH  079%=      5-min Rain = 0
KASU 151310Z 34002KT 23/18 A3009 RMK A01 T02330183  RH  078%=      5-min Rain = 0
KASU 151315Z 04001KT 24/19 A3009 RMK A01 T02390186  RH  076%=      5-min Rain = 0
KASU 151320Z 05002KT 24/19 A3009 RMK A01 T02420186  RH  075%=      5-min Rain = 0
KASU 151325Z 06002KT 25/19 A3009 RMK A01 T02460187  RH  073%=      5-min Rain = 0
KASU 151330Z 07002KT 25/19 A3009 RMK A01 T02490188  RH  073%=      5-min Rain = 0
KASU 151335Z 07002KT 25/19 A3009 RMK A01 T02520188  RH  072%=      5-min Rain = 0
KASU 151340Z 08002KT 26/19 A3009 RMK A01 T02550190  RH  071%=      5-min Rain = 0
KASU 151345Z 08002KT 26/19 A3009 RMK A01 T02590190  RH  070%=      5-min Rain = 0
KASU 151350Z 08003KT 26/19 A3009 RMK A01 T02610186  RH  067%=      5-min Rain = 0
KASU 151355Z 09002KT 26/18 A3009 RMK A01 T02620182  RH  065%=      5-min Rain = 0
KASU 151400Z 09001KT 27/18 A3009 RMK A01 T02680183  RH  063%=      5-min Rain = 0
KASU 151405Z 09002KT 27/18 A3009 RMK A01 T02720181  RH  061%=      5-min Rain = 0
KASU 151410Z 12003KT 28/18 A3009 RMK A01 T02750181  RH  060%=      5-min Rain = 0
KASU 151415Z 11003KT 28/18 A301 RMK A01 T02780181  RH  058%=      5-min Rain = 0
KASU 151420Z 11003KT 28/18 A301 RMK A01 T02790179  RH  058%=      5-min Rain = 0
KASU 151425Z 11003KT 28/18 A301 RMK A01 T02830179  RH  056%=      5-min Rain = 0
KASU 151430Z 11004KT 28/18 A301 RMK A01 T02830176  RH  055%=      5-min Rain = 0
KASU 151435Z 12004G9KT 29/18 A301 RMK A01 T02850175  RH  054%=      5-min Rain = 0
KASU 151440Z 11002KT 29/17 A301 RMK A01 T02880174  RH  053%=      5-min Rain = 0
KASU 151445Z 11004KT 29/18 A301 RMK A01 T02920176  RH  052%=      5-min Rain = 0
KASU 151450Z 10004KT 29/18 A301 RMK A01 T02910175  RH  052%=      5-min Rain = 0
KASU 151455Z 08002KT 30/18 A301 RMK A01 T02970177  RH  051%=      5-min Rain = 0
KASU 151500Z 11003KT 30/17 A301 RMK A01 T02970174  RH  050%=      5-min Rain = 0
KASU 151505Z 10003KT 30/17 A3011 RMK A01 T02990174  RH  050%=      5-min Rain = 0
KASU 151510Z 11004KT 30/17 A3011 RMK A01 T02990174  RH  050%=      5-min Rain = 0
KASU 151515Z 14003KT 30/17 A3011 RMK A01 T02990173  RH  049%=      5-min Rain = 0
KASU 151520Z 10004KT 30/17 A301 RMK A01 T03030173  RH  048%=      5-min Rain = 0
KASU 151525Z 10003KT 30/17 A3011 RMK A01 T03020174  RH  049%=      5-min Rain = 0
KASU 151530Z 13004KT 31/18 A3011 RMK A01 T03090175  RH  047%=      5-min Rain = 0
KASU 151535Z 13004G10KT 31/17 A3011 RMK A01 T03070173  RH  047%=      5-min Rain = 0
KASU 151540Z 11003KT 31/17 A3011 RMK A01 T03090174  RH  047%=      5-min Rain = 0
KASU 151545Z 07004KT 31/17 A3011 RMK A01 T03120174  RH  046%=      5-min Rain = 0
KASU 151550Z 07003KT 31/18 A3011 RMK A01 T03130175  RH  046%=      5-min Rain = 0
KASU 151555Z 10004KT 31/17 A3011 RMK A01 T03130172  RH  045%=      5-min Rain = 0
KASU 151600Z 08005KT 31/17 A3011 RMK A01 T03140170  RH  044%=      5-min Rain = 0
KASU 151605Z 07005KT 32/17 A3011 RMK A01 T03160169  RH  044%=      5-min Rain = 0
KASU 151610Z 11005KT 32/17 A3011 RMK A01 T03190170  RH  043%=      5-min Rain = 0
KASU 151615Z 11004G9KT 32/17 A3011 RMK A01 T03200169  RH  043%=      5-min Rain = 0
KASU 151620Z 11006KT 32/17 A301 RMK A01 T03220171  RH  043%=      5-min Rain = 0
KASU 151625Z 12005KT 32/17 A301 RMK A01 T03240169  RH  042%=      5-min Rain = 0
KASU 151630Z 11005KT 33/17 A301 RMK A01 T03250169  RH  041%=      5-min Rain = 0
KASU 151635Z 08005KT 33/17 A3011 RMK A01 T03260170  RH  041%=      5-min Rain = 0
KASU 151640Z 08005KT 33/17 A301 RMK A01 T03260169  RH  041%=      5-min Rain = 0
KASU 151645Z 07004KT 33/17 A301 RMK A01 T03270170  RH  041%=      5-min Rain = 0
KASU 151650Z 11006KT 33/17 A301 RMK A01 T03310171  RH  041%=      5-min Rain = 0
KASU 151655Z 12007KT 33/17 A301 RMK A01 T03310170  RH  040%=      5-min Rain = 0
KASU 151700Z 09007KT 33/17 A301 RMK A01 T03330173  RH  041%=      5-min Rain = 0
KASU 151705Z 10004KT 33/17 A301 RMK A01 T03330168  RH  039%=      5-min Rain = 0
KASU 151710Z 14005KT 33/17 A301 RMK A01 T03330166  RH  039%=      5-min Rain = 0
KASU 151715Z 10005KT 33/17 A3009 RMK A01 T03330165  RH  039%=      5-min Rain = 0
KASU 151720Z 10004KT 33/16 A3009 RMK A01 T03310163  RH  038%=      5-min Rain = 0
KASU 151725Z 14007KT 34/17 A3009 RMK A01 T03380166  RH  038%=      5-min Rain = 0
KASU 151730Z 17003G8KT 34/17 A3009 RMK A01 T03400165  RH  037%=      5-min Rain = 0
KASU 151735Z 09005KT 34/16 A3009 RMK A01 T03420164  RH  036%=      5-min Rain = 0
KASU 151740Z 11004KT 34/16 A3008 RMK A01 T03380163  RH  037%=      5-min Rain = 0
KASU 151745Z 09003KT 34/16 A3008 RMK A01 T03420162  RH  036%=      5-min Rain = 0
KASU 151750Z 30004KT 34/16 A3008 RMK A01 T03420161  RH  036%=      5-min Rain = 0
KASU 151755Z 09003KT 35/16 A3007 RMK A01 T03450159  RH  035%=      5-min Rain = 0
KASU 151800Z 09006KT 34/16 A3007 RMK A01 T03440160  RH  035%=      5-min Rain = 0
KASU 151805Z 04005KT 34/16 A3007 RMK A01 T03440161  RH  035%=      5-min Rain = 0
KASU 151810Z 03004KT 35/16 A3007 RMK A01 T03490161  RH  034%=      5-min Rain = 0
KASU 151815Z 04005KT 35/16 A3007 RMK A01 T03460159  RH  034%=      5-min Rain = 0
KASU 151820Z 02004KT 35/16 A3006 RMK A01 T03460157  RH  034%=      5-min Rain = 0
KASU 151825Z 02003KT 35/16 A3006 RMK A01 T03520158  RH  033%=      5-min Rain = 0
KASU 151830Z 07003G8KT 35/16 A3006 RMK A01 T03510156  RH  033%=      5-min Rain = 0
KASU 151835Z 09005KT 35/16 A3005 RMK A01 T03510157  RH  033%=      5-min Rain = 0
KASU 151840Z 09005KT 35/16 A3005 RMK A01 T03490157  RH  033%=      5-min Rain = 0
KASU 151845Z 02003KT 36/16 A3005 RMK A01 T03550156  RH  032%=      5-min Rain = 0
KASU 151850Z 33002KT 35/15 A3004 RMK A01 T03480153  RH  033%=      5-min Rain = 0
KASU 151855Z 18005G11KT 36/16 A3004 RMK A01 T03550155  RH  032%=      5-min Rain = 0
KASU 151900Z 14004KT 36/16 A3004 RMK A01 T03610155  RH  031%=      5-min Rain = 0
KASU 151905Z 08004G9KT 35/15 A3004 RMK A01 T03520152  RH  032%=      5-min Rain = 0
KASU 151910Z 13006G11KT 35/15 A3004 RMK A01 T03530150  RH  031%=      5-min Rain = 0
KASU 151915Z 15004G9KT 36/15 A3003 RMK A01 T03580149  RH  030%=      5-min Rain = 0
KASU 151920Z 04005KT 36/15 A3003 RMK A01 T03570149  RH  030%=      5-min Rain = 0
KASU 151925Z 10004G9KT 36/15 A3003 RMK A01 T03600150  RH  030%=      5-min Rain = 0
KASU 151930Z 03004KT 36/15 A3002 RMK A01 T03550147  RH  030%=      5-min Rain = 0
KASU 151935Z 04002KT 36/15 A3002 RMK A01 T03610147  RH  029%=      5-min Rain = 0
KASU 151940Z 07004G9KT 37/15 A3002 RMK A01 T03670147  RH  028%=      5-min Rain = 0
KASU 151945Z 08005KT 36/15 A3002 RMK A01 T03640145  RH  028%=      5-min Rain = 0
KASU 151950Z 05003G8KT 36/14 A3002 RMK A01 T03600144  RH  029%=      5-min Rain = 0
KASU 151955Z 03004KT 36/15 A3001 RMK A01 T03620145  RH  029%=      5-min Rain = 0
KASU 152000Z 08002KT 36/14 A3001 RMK A01 T03610144  RH  029%=      5-min Rain = 0
KASU 152005Z 08002KT 37/15 A30 RMK A01 T03650146  RH  028%=      5-min Rain = 0
KASU 152010Z 36004KT 35/14 A30 RMK A01 T03540142  RH  029%=      5-min Rain = 0
KASU 152015Z 05003G9KT 36/14 A30 RMK A01 T03620144  RH  028%=      5-min Rain = 0
KASU 152020Z 08006KT 37/14 A2999 RMK A01 T03680143  RH  027%=      5-min Rain = 0
KASU 152025Z 08003KT 37/14 A2999 RMK A01 T03680142  RH  027%=      5-min Rain = 0
KASU 152030Z 05003KT 38/14 A2998 RMK A01 T03750141  RH  026%=      5-min Rain = 0
KASU 152035Z 16005G10KT 38/14 A2998 RMK A01 T03770142  RH  026%=      5-min Rain = 0
KASU 152040Z 13006KT 37/14 A2998 RMK A01 T03740140  RH  026%=      5-min Rain = 0
KASU 152045Z 13006G11KT 37/14 A2997 RMK A01 T03730139  RH  026%=      5-min Rain = 0
KASU 152050Z 18005KT 37/14 A2997 RMK A01 T03710135  RH  026%=      5-min Rain = 0
KASU 152055Z 16003KT 37/13 A2996 RMK A01 T03700133  RH  025%=      5-min Rain = 0
KASU 152100Z 17004KT 37/13 A2997 RMK A01 T03730134  RH  025%=      5-min Rain = 0
KASU 152105Z 13007KT 37/13 A2997 RMK A01 T03720134  RH  025%=      5-min Rain = 0
KASU 152110Z 14004G9KT 36/13 A2997 RMK A01 T03630134  RH  026%=      5-min Rain = 0
KASU 152115Z 15004KT 38/14 A2997 RMK A01 T03760135  RH  025%=      5-min Rain = 0
KASU 152120Z 16003KT 38/14 A2997 RMK A01 T03800135  RH  024%=      5-min Rain = 0
KASU 152125Z 19004KT 38/13 A2997 RMK A01 T03770132  RH  024%=      5-min Rain = 0
KASU 152130Z 13004KT 37/13 A2997 RMK A01 T03740130  RH  024%=      5-min Rain = 0
KASU 152135Z 14005KT 38/13 A2997 RMK A01 T03790132  RH  024%=      5-min Rain = 0
KASU 152140Z 15005G10KT 38/13 A2997 RMK A01 T03780132  RH  024%=      5-min Rain = 0
KASU 152145Z 18007KT 38/13 A2996 RMK A01 T03780134  RH  024%=      5-min Rain = 0
KASU 152150Z 16007G14KT 38/13 A2996 RMK A01 T03790131  RH  024%=      5-min Rain = 0
KASU 152155Z 08007G12KT 38/13 A2996 RMK A01 T03760129  RH  024%=      5-min Rain = 0
KASU 152200Z 10005KT 38/13 A2996 RMK A01 T03750127  RH  024%=      5-min Rain = 0
KASU 152205Z 11005G11KT 38/12 A2996 RMK A01 T03750124  RH  023%=      5-min Rain = 0
KASU 152210Z 11004KT 38/12 A2995 RMK A01 T03750123  RH  023%=      5-min Rain = 0
KASU 152215Z 15008KT 38/13 A2995 RMK A01 T03770126  RH  023%=      5-min Rain = 0
KASU 152220Z 17005KT 38/12 A2996 RMK A01 T03760122  RH  023%=      5-min Rain = 0
KASU 152225Z 17006KT 38/12 A2995 RMK A01 T03780122  RH  023%=      5-min Rain = 0
KASU 152230Z 20004KT 38/12 A2995 RMK A01 T03780118  RH  022%=      5-min Rain = 0
KASU 152235Z 11004KT 38/13 A2995 RMK A01 T03800126  RH  023%=      5-min Rain = 0
KASU 152240Z 08006G12KT 38/13 A2995 RMK A01 T03760129  RH  024%=      5-min Rain = 0
KASU 152245Z 08007KT 38/13 A2995 RMK A01 T03750128  RH  024%=      5-min Rain = 0
KASU 152250Z 06005KT 37/13 A2995 RMK A01 T03740127  RH  024%=      5-min Rain = 0
KASU 152255Z 06007KT 37/13 A2995 RMK A01 T03710128  RH  024%=      5-min Rain = 0
KASU 152300Z 03004KT 37/13 A2994 RMK A01 T03720128  RH  024%=      5-min Rain = 0
KASU 152305Z 08007KT 38/13 A2994 RMK A01 T03760129  RH  024%=      5-min Rain = 0
KASU 152310Z 09009KT 37/13 A2994 RMK A01 T03720125  RH  024%=      5-min Rain = 0
KASU 152315Z 11008KT 37/13 A2994 RMK A01 T03700126  RH  024%=      5-min Rain = 0
KASU 152320Z 11006KT 37/12 A2994 RMK A01 T03680124  RH  024%=      5-min Rain = 0
KASU 152325Z 15005KT 37/12 A2994 RMK A01 T03710123  RH  024%=      5-min Rain = 0
KASU 152330Z 12004KT 37/13 A2994 RMK A01 T03720125  RH  024%=      5-min Rain = 0
KASU 152335Z 09008KT 37/12 A2993 RMK A01 T03700124  RH  024%=      5-min Rain = 0
KASU 152340Z 09008KT 37/12 A2993 RMK A01 T03690123  RH  024%=      5-min Rain = 0
KASU 152345Z 10008KT 37/12 A2994 RMK A01 T03670121  RH  024%=      5-min Rain = 0
KASU 152350Z 09007KT 37/12 A2994 RMK A01 T03660123  RH  024%=      5-min Rain = 0
KASU 152355Z 11006KT 37/12 A2994 RMK A01 T03660121  RH  024%=      5-min Rain = 0
KASU 160000Z 12006KT 37/12 A2994 RMK A01 T03660121  RH  024%=      5-min Rain = 0
KASU 160005Z 09006KT 37/12 A2994 RMK A01 T03660123  RH  024%=      5-min Rain = 0
KASU 160010Z 09006KT 36/12 A2994 RMK A01 T03640123  RH  024%=      5-min Rain = 0
KASU 160015Z 10007KT 36/12 A2994 RMK A01 T03630119  RH  024%=      5-min Rain = 0
KASU 160020Z 11006KT 36/12 A2994 RMK A01 T03610119  RH  024%=      5-min Rain = 0
KASU 160025Z 11005KT 36/12 A2994 RMK A01 T03600119  RH  024%=      5-min Rain = 0
KASU 160030Z 12006KT 36/12 A2994 RMK A01 T03590120  RH  025%=      5-min Rain = 0
KASU 160035Z 10006KT 36/12 A2993 RMK A01 T03570119  RH  025%=      5-min Rain = 0
KASU 160040Z 10006KT 36/12 A2994 RMK A01 T03550115  RH  024%=      5-min Rain = 0
KASU 160045Z 11006KT 35/11 A2994 RMK A01 T03530113  RH  024%=      5-min Rain = 0
KASU 160050Z 10005KT 35/11 A2994 RMK A01 T03500114  RH  025%=      5-min Rain = 0
KASU 160055Z 10005KT 35/12 A2994 RMK A01 T03450115  RH  026%=      5-min Rain = 0
KASU 160100Z 10005KT 34/12 A2994 RMK A01 T03400116  RH  027%=      5-min Rain = 0
KASU 160105Z 09005KT 33/12 A2994 RMK A01 T03340115  RH  027%=      5-min Rain = 0
KASU 160110Z 09005KT 33/12 A2994 RMK A01 T03280117  RH  029%=      5-min Rain = 0
KASU 160115Z 10005KT 32/12 A2994 RMK A01 T03230117  RH  029%=      5-min Rain = 0
KASU 160120Z 10005KT 32/12 A2994 RMK A01 T03200116  RH  030%=      5-min Rain = 0
KASU 160125Z 10005KT 32/12 A2994 RMK A01 T03190115  RH  030%=      5-min Rain = 0
KASU 160130Z 10005KT 32/12 A2994 RMK A01 T03170115  RH  030%=      5-min Rain = 0
KASU 160135Z 10005KT 31/12 A2994 RMK A01 T03130116  RH  031%=      5-min Rain = 0
KASU 160140Z 10005KT 31/12 A2994 RMK A01 T03080118  RH  032%=      5-min Rain = 0
KASU 160145Z 11005KT 31/12 A2994 RMK A01 T03070118  RH  033%=      5-min Rain = 0
KASU 160150Z 11004KT 31/12 A2994 RMK A01 T03090118  RH  032%=      5-min Rain = 0
KASU 160155Z 11005KT 31/12 A2994 RMK A01 T03090120  RH  032%=      5-min Rain = 0
KASU 160200Z 11005KT 31/12 A2994 RMK A01 T03070123  RH  034%=      5-min Rain = 0
KASU 160205Z 11004KT 31/13 A2994 RMK A01 T03050126  RH  035%=      5-min Rain = 0
KASU 160210Z 11004KT 30/13 A2995 RMK A01 T03030128  RH  036%=      5-min Rain = 0
KASU 160215Z 10005KT 30/13 A2995 RMK A01 T03000130  RH  037%=      5-min Rain = 0
KASU 160220Z 11005KT 30/13 A2995 RMK A01 T02960131  RH  038%=      5-min Rain = 0
KASU 160225Z 11005KT 29/14 A2995 RMK A01 T02920135  RH  040%=      5-min Rain = 0
KASU 160230Z 11005KT 29/14 A2995 RMK A01 T02920137  RH  040%=      5-min Rain = 0
KASU 160235Z 11005KT 30/14 A2995 RMK A01 T02950139  RH  040%=      5-min Rain = 0
KASU 160240Z 11005KT 29/14 A2995 RMK A01 T02940141  RH  041%=      5-min Rain = 0
KASU 160245Z 11004KT 29/14 A2995 RMK A01 T02920142  RH  042%=      5-min Rain = 0
KASU 160250Z 11004KT 29/14 A2996 RMK A01 T02900143  RH  042%=      5-min Rain = 0
KASU 160255Z 09004KT 29/15 A2996 RMK A01 T02850145  RH  044%=      5-min Rain = 0
KASU 160300Z 11004KT 28/15 A2996 RMK A01 T02830146  RH  045%=      5-min Rain = 0
KASU 160305Z 14005KT 29/15 A2996 RMK A01 T02860145  RH  044%=      5-min Rain = 0
KASU 160310Z 15006KT 30/14 A2997 RMK A01 T02990143  RH  040%=      5-min Rain = 0
KASU 160315Z 15006KT 31/15 A2997 RMK A01 T03050145  RH  039%=      5-min Rain = 0
KASU 160320Z 15006KT 31/15 A2997 RMK A01 T03060146  RH  040%=      5-min Rain = 0
KASU 160325Z 15005KT 31/15 A2997 RMK A01 T03060147  RH  040%=      5-min Rain = 0
KASU 160330Z 15006KT 30/15 A2997 RMK A01 T03040147  RH  040%=      5-min Rain = 0
KASU 160335Z 14006KT 31/15 A2997 RMK A01 T03050148  RH  040%=      5-min Rain = 0
KASU 160340Z 13004KT 30/15 A2997 RMK A01 T03040149  RH  041%=      5-min Rain = 0
KASU 160345Z 11003KT 30/15 A2998 RMK A01 T02990149  RH  042%=      5-min Rain = 0
KASU 160350Z 13003KT 29/15 A2998 RMK A01 T02910148  RH  044%=      5-min Rain = 0
KASU 160355Z 15004KT 29/15 A2998 RMK A01 T02890151  RH  045%=      5-min Rain = 0
KASU 160400Z 16004KT 29/16 A2998 RMK A01 T02940155  RH  045%=      5-min Rain = 0
KASU 160405Z 16004KT 30/16 A2998 RMK A01 T02970155  RH  044%=      5-min Rain = 0
KASU 160410Z 16003KT 30/16 A2998 RMK A01 T02960155  RH  044%=      5-min Rain = 0
KASU 160415Z 09004KT 29/16 A2998 RMK A01 T02900155  RH  046%=      5-min Rain = 0
KASU 160420Z 10005KT 28/15 A2999 RMK A01 T02760153  RH  049%=      5-min Rain = 0
KASU 160425Z 10004KT 28/15 A2999 RMK A01 T02750152  RH  049%=      5-min Rain = 0
KASU 160430Z 07005KT 28/15 A2999 RMK A01 T02760152  RH  049%=      5-min Rain = 0
KASU 160435Z 07005KT 27/15 A2999 RMK A01 T02700152  RH  051%=      5-min Rain = 0
KASU 160440Z 08005KT 27/15 A2999 RMK A01 T02680152  RH  051%=      5-min Rain = 0
KASU 160445Z 10005KT 27/15 A2999 RMK A01 T02700153  RH  051%=      5-min Rain = 0
KASU 160450Z 12005KT 27/15 A2999 RMK A01 T02720153  RH  051%=      5-min Rain = 0
KASU 160455Z 13005KT 28/15 A2999 RMK A01 T02790154  RH  049%=      5-min Rain = 0

Page generated in 0.0093 seconds.